Time;durP1;ratioP1;P1;durP2;ratioP2;P2;SDS_P1;SDS_P2;PMS_P1;PMS_P2;Temp;Humidity;BMP_temperature;BMP_pressure;BME280_temperature;BME280_humidity;BME280_pressure;Samples;Min_cycle;Max_cycle;Signal;HPM_P1;HPM_P2
2022/05/29 00:00:36;;;;;;;7.72;3.20;;;;;;;-145.45;100.00;62759.84;5324275;28;20025;-83
2022/05/29 00:03:10;;;;;;;5.13;2.33;;;;;;;-145.45;100.00;62759.84;5340174;27;20070;-84
2022/05/29 00:05:49;;;;;;;8.02;2.60;;;;;;;-145.45;100.00;62759.84;5324113;28;20043;-84
2022/05/29 00:08:37;;;;;;;10.30;3.75;;;;;;;-145.45;100.00;62759.84;5323666;28;20024;-83
2022/05/29 00:14:15;;;;;;;6.88;3.42;;;;;;;-145.45;100.00;62759.84;5302405;28;20044;-83
2022/05/29 00:16:49;;;;;;;7.25;3.13;;;;;;;-145.45;100.00;62759.84;5303188;28;20473;-84
2022/05/29 00:19:20;;;;;;;6.03;2.83;;;;;;;-145.45;100.00;62759.84;5284248;28;20021;-83
2022/05/29 00:21:58;;;;;;;9.73;2.40;;;;;;;-145.45;100.00;62759.84;5284222;28;20086;-83
2022/05/29 00:24:33;;;;;;;9.05;3.58;;;;;;;-145.45;100.00;62759.84;5310594;28;20020;-84
2022/05/29 00:27:07;;;;;;;4.55;2.90;;;;;;;-145.45;100.00;62759.84;5306740;28;20032;-84
2022/05/29 00:29:39;;;;;;;10.70;3.85;;;;;;;-145.45;100.00;62759.84;5327968;28;20028;-84
2022/05/29 00:32:13;;;;;;;11.90;3.65;;;;;;;-145.45;100.00;62759.84;5308888;28;20024;-84
2022/05/29 00:34:51;;;;;;;11.52;3.65;;;;;;;-145.45;100.00;62759.84;5308593;28;20377;-84
2022/05/29 00:37:25;;;;;;;8.40;3.00;;;;;;;-145.45;100.00;62759.84;5327183;28;20591;-84
2022/05/29 00:39:57;;;;;;;8.85;3.35;;;;;;;-145.45;100.00;62759.84;5327512;28;20531;-84
2022/05/29 00:42:28;;;;;;;10.15;3.47;;;;;;;-145.45;100.00;62759.84;5327173;28;20459;-84
2022/05/29 00:45:00;;;;;;;9.68;3.72;;;;;;;-145.45;100.00;62759.84;5327232;28;20103;-84
2022/05/29 00:47:32;;;;;;;8.68;4.05;;;;;;;-145.45;100.00;62759.84;5309584;28;20024;-84
2022/05/29 00:50:07;;;;;;;17.52;4.97;;;;;;;-145.45;100.00;62759.84;5326189;28;20439;-84
2022/05/29 00:52:44;;;;;;;12.20;6.03;;;;;;;-145.45;100.00;62759.84;5308001;28;20135;-84
2022/05/29 00:55:23;;;;;;;;;;;;;;;-145.45;100.00;62759.84;5328100;28;20452;-84
2022/05/29 00:58:01;;;;;;;9.10;4.13;;;;;;;-145.45;100.00;62759.84;5308421;28;19908;-84
2022/05/29 01:00:33;;;;;;;9.50;5.15;;;;;;;-145.45;100.00;62759.84;5326916;28;20033;-84
2022/05/29 01:03:08;;;;;;;12.07;5.60;;;;;;;-145.45;100.00;62759.84;5308607;28;20050;-84
2022/05/29 01:05:39;;;;;;;15.10;8.52;;;;;;;-145.45;100.00;62759.84;5327409;28;20038;-83
2022/05/29 01:08:32;;;;;;;19.08;11.10;;;;;;;-145.45;100.00;62759.84;5327502;28;20464;-84
2022/05/29 01:11:14;;;;;;;19.77;8.50;;;;;;;-145.45;100.00;62759.84;5307407;28;20368;-84
2022/05/29 01:13:55;;;;;;;19.23;8.20;;;;;;;-145.45;100.00;62759.84;5325881;27;20047;-84
2022/05/29 01:16:44;;;;;;;18.25;9.63;;;;;;;-145.45;100.00;62759.84;5326680;28;20028;-84
2022/05/29 01:19:34;;;;;;;14.93;7.45;;;;;;;-145.45;100.00;62759.84;5307808;28;20020;-84
2022/05/29 01:22:08;;;;;;;12.95;6.55;;;;;;;-145.45;100.00;62759.84;5326253;28;20032;-84
2022/05/29 01:25:00;;;;;;;13.45;6.13;;;;;;;-145.45;100.00;62759.84;5326655;28;20036;-84
2022/05/29 01:27:53;;;;;;;15.75;5.75;;;;;;;-145.45;100.00;62759.84;5326647;28;20023;-84
2022/05/29 01:30:31;;;;;;;10.55;5.07;;;;;;;-145.45;100.00;62759.84;5307893;28;20050;-84
2022/05/29 01:33:21;;;;;;;15.32;6.40;;;;;;;-145.45;100.00;62759.84;5307322;28;20047;-84
2022/05/29 01:36:33;;;;;;;16.17;6.10;;;;;;;-145.45;100.00;62759.84;5326231;28;20387;-84
2022/05/29 01:39:29;;;;;;;12.02;5.35;;;;;;;-145.45;100.00;62759.84;5324338;27;20404;-84
2022/05/29 01:42:24;;;;;;;9.27;4.80;;;;;;;-145.45;100.00;62759.84;5307747;28;20438;-84
2022/05/29 01:45:17;;;;;;;11.75;5.28;;;;;;;-145.45;100.00;62759.84;5323955;28;20359;-83
2022/05/29 01:48:12;;;;;;;11.95;4.65;;;;;;;-145.45;100.00;62759.84;5286049;28;20562;-84
2022/05/29 01:50:53;;;;;;;13.15;5.10;;;;;;;-145.45;100.00;62759.84;5286749;28;20036;-84
2022/05/29 01:53:42;;;;;;;13.82;6.05;;;;;;;-145.45;100.00;62759.84;5286147;28;20037;-84
2022/05/29 01:56:27;;;;;;;14.20;7.32;;;;;;;-145.45;100.00;62759.84;5304759;28;20025;-84
2022/05/29 01:59:05;;;;;;;10.18;6.05;;;;;;;-145.45;100.00;62759.84;5285909;28;20047;-84
2022/05/29 02:02:06;;;;;;;13.13;5.80;;;;;;;-145.45;100.00;62759.84;5286565;28;20033;-84
2022/05/29 02:04:53;;;;;;;17.83;7.60;;;;;;;-145.45;100.00;62759.84;5305611;28;21151;-83
2022/05/29 02:10:34;;;;;;;17.98;6.32;;;;;;;-145.45;100.00;62759.84;5308655;28;20020;-83
2022/05/29 02:13:25;;;;;;;10.55;6.00;;;;;;;-145.45;100.00;62759.84;5316942;27;20065;-82
2022/05/29 02:16:18;;;;;;;8.80;4.80;;;;;;;-145.45;100.00;62759.84;5335485;28;20028;-83
2022/05/29 02:19:03;;;;;;;19.23;7.50;;;;;;;-145.45;100.00;62759.84;5336084;27;20024;-83
2022/05/29 02:21:58;;;;;;;13.38;5.97;;;;;;;-145.45;100.00;62759.84;5342164;27;20080;-83
2022/05/29 02:24:33;;;;;;;15.98;7.32;;;;;;;-145.45;100.00;62759.84;5353781;27;20034;-83
2022/05/29 02:27:09;;;;;;;12.00;6.57;;;;;;;-145.45;100.00;62759.84;5343951;27;20028;-83
2022/05/29 02:29:42;;;;;;;13.98;5.40;;;;;;;-145.45;100.00;62759.84;5347442;27;20118;-83
2022/05/29 02:32:36;;;;;;;16.73;6.47;;;;;;;-145.45;100.00;62759.84;5347922;27;20339;-83
2022/05/29 02:35:19;;;;;;;14.88;6.10;;;;;;;-145.45;100.00;62759.84;5347321;27;20069;-82
2022/05/29 02:38:03;;;;;;;18.15;6.70;;;;;;;-145.45;100.00;62759.84;5345313;27;20026;-83
2022/05/29 02:40:52;;;;;;;8.02;5.45;;;;;;;-145.45;100.00;62759.84;5347683;27;20368;-82
2022/05/29 02:43:45;;;;;;;12.27;5.82;;;;;;;-145.45;100.00;62759.84;5344709;27;20028;-83
2022/05/29 02:46:32;;;;;;;16.42;7.20;;;;;;;-145.45;100.00;62759.84;5345460;27;20020;-83
2022/05/29 02:49:26;;;;;;;14.35;7.03;;;;;;;-145.45;100.00;62759.84;5328147;27;20088;-82
2022/05/29 02:52:09;;;;;;;18.10;7.90;;;;;;;-145.45;100.00;62759.84;5345271;27;20052;-83
2022/05/29 02:54:41;;;;;;;11.77;5.93;;;;;;;-145.45;100.00;62759.84;5345205;27;20099;-83
2022/05/29 02:57:12;;;;;;;14.85;7.00;;;;;;;-145.45;100.00;62759.84;5347327;27;20106;-83
2022/05/29 02:59:51;;;;;;;14.73;6.88;;;;;;;-145.45;100.00;62759.84;5344991;27;20027;-83
2022/05/29 03:02:33;;;;;;;19.33;6.93;;;;;;;-145.45;100.00;62759.84;5346560;27;20039;-83
2022/05/29 03:05:20;;;;;;;19.23;7.05;;;;;;;-145.45;100.00;62759.84;5347051;27;20498;-83
2022/05/29 03:08:31;;;;;;;15.73;7.90;;;;;;;-145.45;100.00;62759.84;5344683;27;20134;-83
2022/05/29 03:11:14;;;;;;;15.98;7.13;;;;;;;-145.45;100.00;62759.84;5362013;27;20042;-83
2022/05/29 03:14:10;;;;;;;16.35;7.60;;;;;;;-145.45;100.00;62759.84;5326406;27;20055;-83
2022/05/29 03:16:55;;;;;;;19.75;7.60;;;;;;;-145.45;100.00;62759.84;5324508;28;20043;-83
2022/05/29 03:19:52;;;;;;;13.95;6.75;;;;;;;-145.45;100.00;62759.84;5305591;28;20107;-83
2022/05/29 03:22:47;;;;;;;14.73;6.72;;;;;;;-145.45;100.00;62759.84;5306118;28;20094;-83
2022/05/29 03:25:28;;;;;;;11.05;6.25;;;;;;;-145.45;100.00;62759.84;5291288;28;20036;-83
2022/05/29 03:28:04;;;;;;;13.95;7.28;;;;;;;-145.45;100.00;62759.84;5305044;28;20008;-84
2022/05/29 03:30:37;;;;;;;18.23;7.63;;;;;;;-145.45;100.00;62759.84;5305694;28;20024;-83
2022/05/29 03:33:12;;;;;;;17.65;7.75;;;;;;;-145.45;100.00;62759.84;5305875;28;20020;-83
2022/05/29 03:36:07;;;;;;;16.92;6.47;;;;;;;-145.45;100.00;62759.84;5304913;28;20024;-83
2022/05/29 03:38:38;;;;;;;11.50;6.25;;;;;;;-145.45;100.00;62759.84;5323524;28;20059;-83
2022/05/29 03:41:37;;;;;;;18.67;7.35;;;;;;;-145.45;100.00;62759.84;5305484;28;20040;-83
2022/05/29 03:44:21;;;;;;;16.90;7.15;;;;;;;-145.45;100.00;62759.84;5322934;28;20047;-83
2022/05/29 03:46:55;;;;;;;11.55;6.93;;;;;;;-145.45;100.00;62759.84;5284566;28;20082;-83
2022/05/29 03:49:36;;;;;;;14.68;6.95;;;;;;;-145.45;100.00;62759.84;5303168;28;20087;-83
2022/05/29 03:52:08;;;;;;;12.13;6.40;;;;;;;-145.45;100.00;62759.84;5300659;28;20023;-83
2022/05/29 03:54:39;;;;;;;11.88;6.78;;;;;;;-145.45;100.00;62759.84;5284486;28;20380;-83
2022/05/29 03:57:16;;;;;;;13.30;6.30;;;;;;;-145.45;100.00;62759.84;5285018;28;20032;-83
2022/05/29 03:59:48;;;;;;;10.60;5.93;;;;;;;-145.45;100.00;62759.84;5283528;28;20036;-83
2022/05/29 04:02:22;;;;;;;13.05;5.85;;;;;;;-145.45;100.00;62759.84;5285009;28;20087;-83
2022/05/29 04:04:54;;;;;;;11.90;6.28;;;;;;;-145.45;100.00;62759.84;5284244;28;20120;-83
2022/05/29 04:13:08;;;;;;;12.73;5.72;;;;;;;-145.45;100.00;62759.84;5302321;28;20127;-83
2022/05/29 04:15:47;;;;;;;10.70;5.93;;;;;;;-145.45;100.00;62759.84;5301486;28;20041;-83
2022/05/29 04:18:22;;;;;;;10.55;6.07;;;;;;;-145.45;100.00;62759.84;5284083;28;20091;-83
2022/05/29 04:20:59;;;;;;;12.80;5.90;;;;;;;-145.45;100.00;62759.84;5284491;28;20020;-84
2022/05/29 04:23:33;;;;;;;;;;;;;;;-145.45;100.00;62759.84;5284101;28;20036;-84
2022/05/29 04:26:08;;;;;;;13.82;4.85;;;;;;;-145.45;100.00;62759.84;5305464;28;19916;-84
2022/05/29 04:28:46;;;;;;;14.07;5.25;;;;;;;-145.45;100.00;62759.84;5304184;28;20119;-84
2022/05/29 04:31:19;;;;;;;9.98;5.18;;;;;;;-145.45;100.00;62759.84;5323624;28;20479;-84
2022/05/29 04:34:00;;;;;;;12.10;5.80;;;;;;;-145.45;100.00;62759.84;5324160;28;20021;-82
2022/05/29 04:36:36;;;;;;;15.68;5.90;;;;;;;-145.45;100.00;62759.84;5304326;28;20080;-82
2022/05/29 04:39:39;;;;;;;8.27;4.80;;;;;;;-145.45;100.00;62759.84;5301930;28;20388;-83
2022/05/29 04:42:34;;;;;;;13.95;5.22;;;;;;;-145.45;100.00;62759.84;5256318;28;20041;-85
2022/05/29 04:46:09;;;;;;;13.45;5.32;;;;;;;-145.45;100.00;62759.84;5235682;28;20068;-87
2022/05/29 04:49:51;;;;;;;;;;;;;;;;;;;;;
2022/05/29 04:56:33;;;;;;;11.85;5.28;;;;;;;-145.45;100.00;62759.84;5251571;28;20030;-88
2022/05/29 05:10:18;;;;;;;;;;;;;;;;;;;;;
2022/05/29 05:20:32;;;;;;;;;;;;;;;;;;;;;
2022/05/29 05:23:42;;;;;;;15.00;5.50;;;;;;;-145.45;100.00;62759.84;5270427;28;40801;-87
2022/05/29 05:34:06;;;;;;;;;;;;;;;;;;;;;
2022/05/29 05:37:19;;;;;;;11.95;5.63;;;;;;;-145.45;100.00;62759.84;5213725;28;41516;-86
2022/05/29 05:40:28;;;;;;;13.05;5.97;;;;;;;-145.45;100.00;62759.84;5285650;28;20040;-86
2022/05/29 05:50:52;;;;;;;;;;;;;;;;;;;;;
2022/05/29 05:53:42;;;;;;;11.80;6.40;;;;;;;-145.45;100.00;62759.84;5304274;28;41861;-87
2022/05/29 05:56:34;;;;;;;12.20;5.90;;;;;;;-145.45;100.00;62759.84;5280402;28;20043;-86
2022/05/29 06:00:00;;;;;;;14.10;7.20;;;;;;;-145.45;100.00;62759.84;5302599;28;20033;-86
2022/05/29 06:17:05;;;;;;;11.38;5.35;;;;;;;-145.45;100.00;62759.84;5239214;28;20022;-86
2022/05/29 06:20:43;;;;;;;15.40;6.10;;;;;;;-145.45;100.00;62759.84;5181767;28;20045;-86
2022/05/29 06:27:20;;;;;;;9.15;5.18;;;;;;;-145.45;100.00;62759.84;5137972;29;20036;-87
2022/05/29 06:30:33;;;;;;;11.57;5.00;;;;;;;-145.45;100.00;62759.84;5096137;29;20048;-86
2022/05/29 06:37:29;;;;;;;9.98;4.60;;;;;;;-145.45;100.00;62759.84;5177191;28;20082;-86
2022/05/29 06:44:51;;;;;;;11.90;4.18;;;;;;;-145.45;100.00;62759.84;5295046;27;20074;-86
2022/05/29 06:48:16;;;;;;;11.60;2.90;;;;;;;-145.45;100.00;62759.84;5278228;28;20131;-86
2022/05/29 06:51:38;;;;;;;10.15;3.42;;;;;;;-145.45;100.00;62759.84;5279535;28;20183;-86
2022/05/29 06:55:26;;;;;;;8.00;2.90;;;;;;;-145.45;100.00;62759.84;5252434;28;20036;-85
2022/05/29 06:58:54;;;;;;;7.13;2.58;;;;;;;-145.45;100.00;62759.84;5252805;28;20048;-85
2022/05/29 07:08:39;;;;;;;8.18;3.05;;;;;;;-145.45;100.00;62759.84;5283393;28;20489;-86
2022/05/29 07:11:53;;;;;;;12.13;3.05;;;;;;;-145.45;100.00;62759.84;5280398;27;20028;-85
2022/05/29 07:14:41;;;;;;;8.30;2.33;;;;;;;-145.45;100.00;62759.84;5320596;28;20646;-85
2022/05/29 07:18:07;;;;;;;;;;;;;;;;;;;;;
2022/05/29 07:21:31;;;;;;;8.68;2.40;;;;;;;-145.45;100.00;62759.84;5323854;28;40327;-85
2022/05/29 07:24:32;;;;;;;7.70;2.20;;;;;;;-145.45;100.00;62759.84;5328335;27;20032;-85
2022/05/29 07:27:27;;;;;;;6.10;2.08;;;;;;;-145.45;100.00;62759.84;5279104;28;20860;-85
2022/05/29 07:30:54;;;;;;;9.35;2.25;;;;;;;-145.45;100.00;62759.84;5261912;28;20052;-84
2022/05/29 07:33:30;;;;;;;5.40;2.17;;;;;;;-145.45;100.00;62759.84;5307107;27;20092;-84
2022/05/29 07:39:45;;;;;;;4.13;2.13;;;;;;;-145.45;100.00;62759.84;5334550;27;19907;-84
2022/05/29 07:45:20;;;;;;;7.45;2.17;;;;;;;-145.45;100.00;62759.84;5345190;27;20024;-84
2022/05/29 07:51:32;;;;;;;;;;;;;;;;;;;;;
2022/05/29 07:54:20;;;;;;;8.05;2.35;;;;;;;-145.45;100.00;62759.84;5344206;27;41213;-84
2022/05/29 07:57:23;;;;;;;6.70;1.95;;;;;;;-145.45;100.00;62759.84;5343961;27;20035;-84
2022/05/29 08:00:21;;;;;;;;;;;;;;;;;;;;;
2022/05/29 08:09:21;;;;;;;5.82;2.05;;;;;;;-145.45;100.00;62759.84;5306538;28;20496;-84
2022/05/29 08:12:22;;;;;;;6.05;1.80;;;;;;;-145.45;100.00;62759.84;5322219;27;20028;-84
2022/05/29 08:15:24;;;;;;;9.50;1.90;;;;;;;-145.45;100.00;62759.84;5336821;27;20336;-84
2022/05/29 08:18:17;;;;;;;;;;;;;;;;;;;;;
2022/05/29 08:20:56;;;;;;;5.22;1.80;;;;;;;-145.45;100.00;62759.84;5322787;28;40673;-84
2022/05/29 08:32:47;;;;;;;7.90;1.65;;;;;;;-145.45;100.00;62759.84;5323806;28;20044;-85
2022/05/29 08:35:24;;;;;;;5.28;1.58;;;;;;;-145.45;100.00;62759.84;5311886;27;20067;-85
2022/05/29 08:38:27;;;;;;;7.25;1.67;;;;;;;-145.45;100.00;62759.84;5323755;27;20017;-86
2022/05/29 08:41:25;;;;;;;6.82;2.00;;;;;;;-145.45;100.00;62759.84;5322440;28;20484;-86
2022/05/29 08:44:21;;;;;;;8.77;1.75;;;;;;;-145.45;100.00;62759.84;5318349;27;20036;-84
2022/05/29 08:47:11;;;;;;;6.15;1.60;;;;;;;-145.45;100.00;62759.84;5323383;27;20371;-84
2022/05/29 08:50:05;;;;;;;4.22;1.45;;;;;;;-145.45;100.00;62759.84;5341794;27;20063;-84
2022/05/29 08:52:59;;;;;;;5.30;1.60;;;;;;;-145.45;100.00;62759.84;5344257;28;20028;-85
2022/05/29 08:55:48;;;;;;;4.68;1.20;;;;;;;-145.45;100.00;62759.84;5334560;28;20032;-84
2022/05/29 08:58:52;;;;;;;8.10;2.00;;;;;;;-145.45;100.00;62759.84;5332431;28;20031;-83
2022/05/29 09:01:38;;;;;;;5.60;1.70;;;;;;;-145.45;100.00;62759.84;5345534;28;20472;-84
2022/05/29 09:04:34;;;;;;;7.95;2.03;;;;;;;-145.45;100.00;62759.84;5330718;28;20086;-84
2022/05/29 09:07:17;;;;;;;7.22;1.88;;;;;;;-145.45;100.00;62759.84;5341439;28;20099;-84
2022/05/29 09:10:00;;;;;;;7.65;1.77;;;;;;;-145.45;100.00;62759.84;5325467;28;20032;-83
2022/05/29 09:12:47;;;;;;;6.00;1.90;;;;;;;-145.45;100.00;62759.84;5327266;28;20070;-85
2022/05/29 09:15:27;;;;;;;;;;;;;;;-145.45;100.00;62759.84;5324787;28;20055;-85
2022/05/29 09:18:37;;;;;;;7.10;1.90;;;;;;;-145.45;100.00;62759.84;5327001;27;19920;-84
2022/05/29 09:21:22;;;;;;;7.20;2.03;;;;;;;-145.45;100.00;62759.84;5332267;27;20115;-84
2022/05/29 09:24:28;;;;;;;4.50;1.55;;;;;;;-145.45;100.00;62759.84;5336910;27;21157;-85
2022/05/29 09:30:07;;;;;;;5.45;1.30;;;;;;;-145.45;100.00;62759.84;5322003;27;20023;-84
2022/05/29 09:32:47;;;;;;;5.40;1.80;;;;;;;-145.45;100.00;62759.84;5354636;27;20036;-84
2022/05/29 09:35:47;;;;;;;6.70;1.88;;;;;;;-145.45;100.00;62759.84;5358994;27;20460;-84
2022/05/29 09:38:25;;;;;;;5.13;1.48;;;;;;;-145.45;100.00;62759.84;5357882;27;20154;-84
2022/05/29 09:41:13;;;;;;;10.23;2.15;;;;;;;-145.45;100.00;62759.84;5349485;27;20102;-84
2022/05/29 09:44:16;;;;;;;5.57;1.35;;;;;;;-145.45;100.00;62759.84;5348700;27;20051;-84
2022/05/29 09:49:40;;;;;;;5.88;1.38;;;;;;;-145.45;100.00;62759.84;5346400;27;20063;-85
2022/05/29 09:50:14;;;;;;;4.28;1.30;;;;;;;-145.45;100.00;62759.84;5348132;27;20096;-85
2022/05/29 09:56:17;;;;;;;5.93;1.58;;;;;;;-145.45;100.00;62759.84;5347885;27;20488;-84
2022/05/29 09:59:05;;;;;;;4.22;1.35;;;;;;;-145.45;100.00;62759.84;5346017;27;20028;-84
2022/05/29 10:01:45;;;;;;;7.00;1.65;;;;;;;-145.45;100.00;62759.84;5329548;27;20040;-84
2022/05/29 10:04:29;;;;;;;4.65;1.48;;;;;;;-145.45;100.00;62759.84;5324131;28;20028;-83
2022/05/29 10:07:13;;;;;;;5.47;1.83;;;;;;;-145.45;100.00;62759.84;5341949;27;20039;-84
2022/05/29 10:09:59;;;;;;;4.90;1.30;;;;;;;-145.45;100.00;62759.84;5324450;27;20032;-83
2022/05/29 10:12:48;;;;;;;4.23;1.30;;;;;;;-145.45;100.00;62759.84;5324509;28;20020;-84
2022/05/29 10:15:26;;;;;;;5.25;1.50;;;;;;;-145.45;100.00;62759.84;5323862;28;20064;-84
2022/05/29 10:18:34;;;;;;;5.20;1.67;;;;;;;-145.45;100.00;62759.84;5325864;28;20024;-84
2022/05/29 10:28:52;;;;;;;2.63;0.95;;;;;;;-145.45;100.00;62759.84;5259835;28;20060;-87
2022/05/29 10:31:43;;;;;;;2.78;0.80;;;;;;;-145.45;100.00;62759.84;5289659;27;20060;-88
2022/05/29 10:52:32;;;;;;;5.93;1.80;;;;;;;-145.45;100.00;62759.84;5331735;27;20024;-87
2022/05/29 10:56:07;;;;;;;7.40;2.20;;;;;;;-145.45;100.00;62759.84;5324673;28;20097;-87
2022/05/29 10:59:36;;;;;;;5.55;2.08;;;;;;;-145.45;100.00;62759.84;5261296;28;20048;-87
2022/05/29 11:06:23;;;;;;;4.68;1.92;;;;;;;-145.45;100.00;62759.84;5326063;28;20054;-87
2022/05/29 11:13:32;;;;;;;4.32;1.35;;;;;;;-145.45;100.00;62759.84;5239909;27;20036;-87
2022/05/29 11:16:40;;;;;;;2.67;1.05;;;;;;;-145.45;100.00;62759.84;5323798;27;20048;-86
2022/05/29 11:19:47;;;;;;;3.75;1.10;;;;;;;-145.45;100.00;62759.84;5325348;27;20036;-86
2022/05/29 11:23:03;;;;;;;6.18;1.80;;;;;;;-145.45;100.00;62759.84;5325675;27;20113;-86
2022/05/29 11:25:53;;;;;;;4.65;1.40;;;;;;;-145.45;100.00;62759.84;5353054;27;20571;-86
2022/05/29 11:29:11;;;;;;;3.30;1.30;;;;;;;-145.45;100.00;62759.84;5345459;27;20032;-86
2022/05/29 11:32:04;;;;;;;4.40;1.17;;;;;;;-145.45;100.00;62759.84;5345466;27;20065;-87
2022/05/29 11:35:27;;;;;;;4.60;1.33;;;;;;;-145.45;100.00;62759.84;5338803;27;20074;-88
2022/05/29 11:39:01;;;;;;;2.78;1.02;;;;;;;-145.45;100.00;62759.84;5344676;27;20059;-87
2022/05/29 11:42:20;;;;;;;2.65;1.25;;;;;;;-145.45;100.00;62759.84;5240244;28;20504;-87
2022/05/29 11:53:06;;;;;;;2.58;1.00;;;;;;;-145.45;100.00;62759.84;5346965;27;20020;-87
2022/05/29 11:55:53;;;;;;;3.38;1.13;;;;;;;-145.45;100.00;62759.84;5241546;28;20041;-86
2022/05/29 11:58:34;;;;;;;;;;;;;;;-145.45;100.00;62759.84;5263481;27;20054;-86
2022/05/29 12:01:11;;;;;;;2.70;0.98;;;;;;;-145.45;100.00;62759.84;5345240;27;20379;-86
2022/05/29 12:04:18;;;;;;;3.45;1.25;;;;;;;-145.45;100.00;62759.84;5344452;27;20027;-86
2022/05/29 12:07:14;;;;;;;2.53;0.82;;;;;;;-145.45;100.00;62759.84;5312882;27;20035;-85
2022/05/29 12:10:04;;;;;;;3.05;0.80;;;;;;;-145.45;100.00;62759.84;5344846;27;20023;-86
2022/05/29 12:12:43;;;;;;;1.48;0.70;;;;;;;-145.45;100.00;62759.84;5346866;27;20020;-85
2022/05/29 12:15:32;;;;;;;2.08;0.60;;;;;;;-145.45;100.00;62759.84;5330955;27;20040;-85
2022/05/29 12:18:41;;;;;;;2.05;0.98;;;;;;;-145.45;100.00;62759.84;5305949;28;20455;-85
2022/05/29 12:21:45;;;;;;;1.08;0.57;;;;;;;-145.45;100.00;62759.84;5324319;27;20538;-85
2022/05/29 12:24:32;;;;;;;3.75;0.70;;;;;;;-145.45;100.00;62759.84;5309097;28;20040;-85
2022/05/29 12:27:15;;;;;;;5.05;0.98;;;;;;;-145.45;100.00;62759.84;5309314;28;20024;-85
2022/05/29 12:30:06;;;;;;;2.72;0.70;;;;;;;-145.45;100.00;62759.84;5308238;28;20028;-85
2022/05/29 12:33:30;;;;;;;1.98;0.60;;;;;;;-145.45;100.00;62759.84;5327442;28;20080;-85
2022/05/29 12:36:36;;;;;;;2.38;0.95;;;;;;;-145.45;100.00;62759.84;5327075;28;20020;-86
2022/05/29 12:39:17;;;;;;;3.10;0.70;;;;;;;-145.45;100.00;62759.84;5309666;28;20020;-85
2022/05/29 12:42:12;;;;;;;1.27;0.63;;;;;;;-145.45;100.00;62759.84;5309305;28;20024;-85
2022/05/29 12:44:56;;;;;;;1.75;0.80;;;;;;;-145.45;100.00;62759.84;5260835;28;20477;-85
2022/05/29 12:47:48;;;;;;;0.95;0.55;;;;;;;-145.45;100.00;62759.84;5327768;28;20031;-84
2022/05/29 12:50:38;;;;;;;1.60;0.70;;;;;;;-145.45;100.00;62759.84;5308916;28;20361;-84
2022/05/29 12:53:18;;;;;;;1.90;0.40;;;;;;;-145.45;100.00;62759.84;5327609;28;20112;-85
2022/05/29 12:56:11;;;;;;;1.95;0.60;;;;;;;-145.45;100.00;62759.84;5308612;28;20379;-85
2022/05/29 12:59:07;;;;;;;0.90;0.40;;;;;;;-145.45;100.00;62759.84;5326483;28;20028;-85
2022/05/29 13:01:52;;;;;;;1.75;0.70;;;;;;;-145.45;100.00;62759.84;5308598;28;20020;-86
2022/05/29 13:04:58;;;;;;;1.10;0.40;;;;;;;-145.45;100.00;62759.84;5326201;28;20174;-85
2022/05/29 13:07:52;;;;;;;1.30;0.50;;;;;;;-145.45;100.00;62759.84;5321480;28;20500;-84
2022/05/29 13:10:27;;;;;;;1.55;0.50;;;;;;;-145.45;100.00;62759.84;5308654;28;20036;-85
2022/05/29 13:13:07;;;;;;;1.73;0.70;;;;;;;-145.45;100.00;62759.84;5327683;28;20028;-85
2022/05/29 13:15:39;;;;;;;1.48;0.50;;;;;;;-145.45;100.00;62759.84;5340201;27;20079;-85
2022/05/29 13:21:06;;;;;;;1.63;0.55;;;;;;;-145.45;100.00;62759.84;5348172;27;20098;-86
2022/05/29 13:23:43;;;;;;;2.17;0.95;;;;;;;-145.45;100.00;62759.84;5347199;27;20134;-84
2022/05/29 13:26:25;;;;;;;2.00;0.70;;;;;;;-145.45;100.00;62759.84;5348815;27;20040;-83
2022/05/29 13:29:04;;;;;;;1.83;0.60;;;;;;;-145.45;100.00;62759.84;5346544;27;20444;-84
2022/05/29 13:32:13;;;;;;;4.55;1.10;;;;;;;-145.45;100.00;62759.84;5347261;27;20024;-84
2022/05/29 13:35:12;;;;;;;4.15;1.25;;;;;;;-145.45;100.00;62759.84;5347839;27;20020;-84
2022/05/29 13:37:49;;;;;;;2.83;0.88;;;;;;;-145.45;100.00;62759.84;5336565;27;20051;-85
2022/05/29 13:40:21;;;;;;;2.88;1.02;;;;;;;-145.45;100.00;62759.84;5348273;27;20077;-84
2022/05/29 13:42:54;;;;;;;4.17;1.10;;;;;;;-145.45;100.00;62759.84;5349233;27;20036;-85
2022/05/29 13:45:25;;;;;;;4.00;1.15;;;;;;;-145.45;100.00;62759.84;5348032;27;20282;-86
2022/05/29 13:48:14;;;;;;;6.95;1.58;;;;;;;-145.45;100.00;62759.84;5348664;27;20412;-87
2022/05/29 13:50:52;;;;;;;2.67;1.17;;;;;;;-145.45;100.00;62759.84;5347187;27;20028;-85
2022/05/29 13:53:32;;;;;;;4.45;1.48;;;;;;;-145.45;100.00;62759.84;5346437;27;20107;-85
2022/05/29 13:56:16;;;;;;;6.45;1.17;;;;;;;-145.45;100.00;62759.84;5349278;27;20035;-85
2022/05/29 14:04:57;;;;;;;5.82;1.20;;;;;;;-145.45;100.00;62759.84;5348768;27;20031;-86
2022/05/29 14:07:33;;;;;;;2.63;1.00;;;;;;;-145.45;100.00;62759.84;5347103;27;20024;-86
2022/05/29 14:10:21;;;;;;;8.55;1.70;;;;;;;-145.45;100.00;62759.84;5348636;27;20525;-86
2022/05/29 14:13:10;;;;;;;9.45;2.60;;;;;;;-145.45;100.00;62759.84;5347612;27;20023;-85
2022/05/29 14:15:49;;;;;;;4.90;1.63;;;;;;;-145.45;100.00;62759.84;5309042;28;20072;-86
2022/05/29 14:18:31;;;;;;;5.65;1.52;;;;;;;-145.45;100.00;62759.84;5306429;28;20032;-85
2022/05/29 14:21:06;;;;;;;3.60;1.10;;;;;;;-145.45;100.00;62759.84;5272536;28;20031;-86
2022/05/29 14:23:56;;;;;;;5.10;1.38;;;;;;;-145.45;100.00;62759.84;5291612;28;20047;-85
2022/05/29 14:26:57;;;;;;;5.32;1.48;;;;;;;-145.45;100.00;62759.84;5289497;28;20130;-85
2022/05/29 14:29:53;;;;;;;4.13;1.38;;;;;;;-145.45;100.00;62759.84;5286763;28;20033;-85
2022/05/29 14:32:48;;;;;;;5.07;1.50;;;;;;;-145.45;100.00;62759.84;5289491;28;20024;-85
2022/05/29 14:35:45;;;;;;;3.67;1.25;;;;;;;-145.45;100.00;62759.84;5288337;28;20035;-85
2022/05/29 14:38:22;;;;;;;6.47;1.42;;;;;;;-145.45;100.00;62759.84;5306662;28;20028;-85
2022/05/29 14:41:00;;;;;;;5.22;1.38;;;;;;;-145.45;100.00;62759.84;5304904;28;20054;-86
2022/05/29 14:43:41;;;;;;;5.00;1.73;;;;;;;-145.45;100.00;62759.84;5286917;28;20033;-84
2022/05/29 14:46:36;;;;;;;7.22;1.42;;;;;;;-145.45;100.00;62759.84;5289101;28;20499;-85
2022/05/29 14:49:20;;;;;;;5.70;1.45;;;;;;;-145.45;100.00;62759.84;5309704;28;20516;-85
2022/05/29 14:52:07;;;;;;;3.30;1.23;;;;;;;-145.45;100.00;62759.84;5305713;28;20468;-85
2022/05/29 14:54:50;;;;;;;6.00;1.55;;;;;;;-145.45;100.00;62759.84;5286183;28;20067;-84
2022/05/29 14:57:28;;;;;;;7.40;1.85;;;;;;;-145.45;100.00;62759.84;5286387;28;20032;-84
2022/05/29 15:00:00;;;;;;;3.90;1.35;;;;;;;-145.45;100.00;62759.84;5305083;28;20075;-84
2022/05/29 15:02:37;;;;;;;5.82;1.38;;;;;;;-145.45;100.00;62759.84;5288020;28;20086;-85
2022/05/29 15:05:16;;;;;;;5.65;1.75;;;;;;;-145.45;100.00;62759.84;5305458;28;20519;-85
2022/05/29 15:11:02;;;;;;;10.05;1.88;;;;;;;-145.45;100.00;62759.84;5305536;28;20033;-85
2022/05/29 15:16:52;;;;;;;4.47;1.20;;;;;;;-145.45;100.00;62759.84;5241861;28;20046;-85
2022/05/29 15:25:19;;;;;;;3.05;0.80;;;;;;;-145.45;100.00;62759.84;5319549;28;20102;-85
2022/05/29 15:27:59;;;;;;;3.72;1.13;;;;;;;-145.45;100.00;62759.84;5315531;28;20024;-86
2022/05/29 15:30:31;;;;;;;5.35;1.13;;;;;;;-145.45;100.00;62759.84;5307232;28;20024;-86
2022/05/29 15:33:07;;;;;;;3.88;1.05;;;;;;;-145.45;100.00;62759.84;5308222;28;20020;-85
2022/05/29 15:35:52;;;;;;;3.90;1.13;;;;;;;-145.45;100.00;62759.84;5325626;28;20052;-86
2022/05/29 15:38:43;;;;;;;4.25;1.17;;;;;;;-145.45;100.00;62759.84;5323951;28;20031;-85
2022/05/29 15:42:05;;;;;;;4.85;1.27;;;;;;;-145.45;100.00;62759.84;5283393;28;20024;-86
2022/05/29 15:45:14;;;;;;;5.97;1.45;;;;;;;-145.45;100.00;62759.84;5267382;28;20044;-85
2022/05/29 15:48:11;;;;;;;4.35;1.10;;;;;;;-145.45;100.00;62759.84;5285609;28;20025;-85
2022/05/29 15:51:11;;;;;;;4.43;1.00;;;;;;;-145.45;100.00;62759.84;5303986;28;20029;-85
2022/05/29 15:54:07;;;;;;;4.53;0.90;;;;;;;-145.45;100.00;62759.84;5285769;28;20029;-85
2022/05/29 15:56:56;;;;;;;5.68;1.25;;;;;;;-145.45;100.00;62759.84;5303955;28;20469;-84